No particular awareness of the weather is required.    There are no Weather-warnings


Meteo18 Weather Cam more information Meteo18 Weather Cam


Thunder radar more information blitzortung!


Rain radar more information rain snow radar


Visit our other weather sites:

Template documentation
and downloads

And another site



Weather Underground History page Text

Daily Summary for June 9, 2017 Units:  Both    English   Metric
« Previous Day
Next Day »
Daily Weekly Monthly Yearly Custom
  High: Low: Average:
Temperature: TemperatureC °F /  -17.8 °C 15.1 °F /  -9.4 °C 19 °F /  -7.2 °C
Dew Point: DewpointC °F /  -17.8 °C 12.6 °F /  -10.8 °C 14.2 °F /  -9.9 °C
Humidity: Humidity % 56 % 74 %
Wind Speed: WindSpeedKMH mph /  0 km/h - 6 mph /  9.7 km/h
Wind Gust: WindSpeedGustKMH mph /  0 km/h - -
Wind:- - WSW
Pressure: PressurehPa in /  0 hPa 1011.7 in /  34256.2 hPa -
Precipitation: 0.5 in /  12.7 mm    
Historical Graphs
 
 
Tabular Data for June 9, 2017
Time Temperature Dew Point Pressure Wind Wind Speed Wind Gust Humidity Rainfall Rate (Hourly)
TemperatureC °F /  -17.8 °C DewpointC °F /  -17.8 °C PressurehPa in /  0 hPa Calm     Humidity % HourlyPrecipMM in /  0 mm
00:02 18.6 °F /  -7.4 °C 14.1 °F /  -9.9 °C 1011.7 in /  34256.2 hPa Calm   1.6 mph /  2.6 km/h 75 % 0.0 in /  0 mm
00:12 18.6 °F /  -7.4 °C 13.9 °F /  -10.1 °C 1011.7 in /  34256.2 hPa Calm   1.6 mph /  2.6 km/h 74 % 0.0 in /  0 mm
00:17 18.4 °F /  -7.6 °C 14.1 °F /  -9.9 °C 1011.7 in /  34256.2 hPa Calm   1.6 mph /  2.6 km/h 76 % 0.0 in /  0 mm
00:22 18.1 °F /  -7.7 °C 14.0 °F /  -10 °C 1011.7 in /  34256.2 hPa Calm   1.6 mph /  2.6 km/h 77 % 0.0 in /  0 mm
00:32 17.7 °F /  -7.9 °C 14.0 °F /  -10 °C 1011.7 in /  34256.2 hPa Calm   1.6 mph /  2.6 km/h 79 % 0.0 in /  0 mm
00:42 17.6 °F /  -8 °C 13.9 °F /  -10.1 °C 1011.7 in /  34256.2 hPa WNW 1.6 mph /  2.6 km/h 1.6 mph /  2.6 km/h 79 % 0.0 in /  0 mm
00:47 17.7 °F /  -7.9 °C 13.8 °F /  -10.1 °C 1011.7 in /  34256.2 hPa Calm   1.6 mph /  2.6 km/h 78 % 0.0 in /  0 mm
00:52 18.1 °F /  -7.7 °C 13.8 °F /  -10.1 °C 1011.7 in /  34256.2 hPa Calm   1.6 mph /  2.6 km/h 76 % 0.0 in /  0 mm
00:57 18.3 °F /  -7.6 °C 13.6 °F /  -10.2 °C 1011.7 in /  34256.2 hPa Calm   1.6 mph /  2.6 km/h 74 % 0.0 in /  0 mm
01:02 18.5 °F /  -7.5 °C 13.6 °F /  -10.2 °C 1011.7 in /  34256.2 hPa Calm   1.6 mph /  2.6 km/h 73 % 0.0 in /  0 mm
01:07 18.6 °F /  -7.4 °C 13.7 °F /  -10.2 °C 1011.7 in /  34256.2 hPa Calm   1.6 mph /  2.6 km/h 73 % 0.0 in /  0 mm
01:12 18.6 °F /  -7.4 °C 13.9 °F /  -10.1 °C 1011.7 in /  34256.2 hPa Calm   1.6 mph /  2.6 km/h 74 % 0.0 in /  0 mm
01:17 18.3 °F /  -7.6 °C 13.6 °F /  -10.2 °C 1011.7 in /  34256.2 hPa WSW 1.6 mph /  2.6 km/h 1.6 mph /  2.6 km/h 74 % 0.0 in /  0 mm
01:22 18.3 °F /  -7.6 °C 13.6 °F /  -10.2 °C 1011.7 in /  34256.2 hPa Calm   1.6 mph /  2.6 km/h 74 % 0.0 in /  0 mm
01:27 18.4 °F /  -7.6 °C 13.7 °F /  -10.2 °C 1011.7 in /  34256.2 hPa West 1.6 mph /  2.6 km/h 3.2 mph /  5.1 km/h 74 % 0.0 in /  0 mm
01:32 18.3 °F /  -7.6 °C 13.6 °F /  -10.2 °C 1011.7 in /  34256.2 hPa Calm   3.2 mph /  5.1 km/h 74 % 0.0 in /  0 mm
01:37 18.4 °F /  -7.6 °C 13.5 °F /  -10.3 °C 1011.7 in /  34256.2 hPa Calm   3.2 mph /  5.1 km/h 73 % 0.0 in /  0 mm
01:42 18.6 °F /  -7.4 °C 13.5 °F /  -10.3 °C 1011.7 in /  34256.2 hPa Calm   6.4 mph /  10.3 km/h 72 % 0.0 in /  0 mm
01:47 18.6 °F /  -7.4 °C 13.5 °F /  -10.3 °C 1011.7 in /  34256.2 hPa Calm   6.4 mph /  10.3 km/h 72 % 0.0 in /  0 mm
01:57 18.6 °F /  -7.4 °C 13.7 °F /  -10.2 °C 1011.7 in /  34256.2 hPa SW 1.6 mph /  2.6 km/h 3.2 mph /  5.1 km/h 73 % 0.0 in /  0 mm
02:02 18.6 °F /  -7.4 °C 13.7 °F /  -10.2 °C 1011.7 in /  34256.2 hPa ESE 1.6 mph /  2.6 km/h 3.2 mph /  5.1 km/h 73 % 0.0 in /  0 mm
02:07 18.4 °F /  -7.6 °C 13.7 °F /  -10.2 °C 1011.7 in /  34256.2 hPa Calm   3.2 mph /  5.1 km/h 74 % 0.0 in /  0 mm
02:12 18.1 °F /  -7.7 °C 13.8 °F /  -10.1 °C 1011.7 in /  34256.2 hPa Calm   3.2 mph /  5.1 km/h 76 % 0.0 in /  0 mm
02:17 17.8 °F /  -7.9 °C 13.9 °F /  -10.1 °C 1011.7 in /  34256.2 hPa Calm   3.2 mph /  5.1 km/h 78 % 0.0 in /  0 mm
02:22 18.0 °F /  -7.8 °C 13.7 °F /  -10.2 °C 1012.1 in /  34269.7 hPa SW 6.4 mph /  10.3 km/h 6.4 mph /  10.3 km/h 76 % 0.0 in /  0 mm
02:27 19.0 °F /  -7.2 °C 13.8 °F /  -10.1 °C 1012.4 in /  34279.9 hPa SSW 9.7 mph /  15.6 km/h 16.1 mph /  25.9 km/h 72 % 0.0 in /  0 mm
02:32 19.5 °F /  -6.9 °C 14.1 °F /  -9.9 °C 1012.4 in /  34279.9 hPa WSW 14.5 mph /  23.3 km/h 29.0 mph /  46.7 km/h 71 % 0.0 in /  0 mm
02:37 19.7 °F /  -6.8 °C 14.3 °F /  -9.8 °C 1012.1 in /  34269.7 hPa SW 17.7 mph /  28.5 km/h 29.0 mph /  46.7 km/h 71 % 0.0 in /  0 mm
02:47 19.9 °F /  -6.7 °C 14.5 °F /  -9.7 °C 1012.1 in /  34269.7 hPa WSW 22.5 mph /  36.2 km/h 32.2 mph /  51.8 km/h 71 % 0.0 in /  0 mm
02:52 20.2 °F /  -6.6 °C 14.6 °F /  -9.7 °C 1012.1 in /  34269.7 hPa SW 19.3 mph /  31.1 km/h 27.4 mph /  44.1 km/h 70 % 0.0 in /  0 mm
02:57 20.3 °F /  -6.5 °C 14.6 °F /  -9.7 °C 1012.1 in /  34269.7 hPa SSW 14.5 mph /  23.3 km/h 29.0 mph /  46.7 km/h 70 % 0.0 in /  0 mm
03:02 20.4 °F /  -6.4 °C 14.7 °F /  -9.6 °C 1012.4 in /  34279.9 hPa West 16.1 mph /  25.9 km/h 29.0 mph /  46.7 km/h 70 % 0.0 in /  0 mm
03:12 20.4 °F /  -6.4 °C 15.2 °F /  -9.3 °C 1012.8 in /  34293.4 hPa WSW 11.3 mph /  18.2 km/h 27.4 mph /  44.1 km/h 72 % 0.0 in /  0 mm
03:22 19.4 °F /  -7 °C 14.4 °F /  -9.8 °C 1013.4 in /  34313.7 hPa NW 16.1 mph /  25.9 km/h 45.1 mph /  72.6 km/h 73 % 0.0 in /  0 mm
03:32 18.4 °F /  -7.6 °C 14.3 °F /  -9.8 °C 1013.1 in /  34303.6 hPa NNW 8.0 mph /  12.9 km/h 56.3 mph /  90.6 km/h 77 % 0.0 in /  0 mm
03:37 18.1 °F /  -7.7 °C 14.2 °F /  -9.9 °C 1013.1 in /  34303.6 hPa WNW 9.7 mph /  15.6 km/h 35.4 mph /  57 km/h 78 % 0.0 in /  0 mm
03:42 17.8 °F /  -7.9 °C 14.1 °F /  -9.9 °C 1013.1 in /  34303.6 hPa ENE 8.0 mph /  12.9 km/h 35.4 mph /  57 km/h 79 % 0.0 in /  0 mm
03:47 17.6 °F /  -8 °C 14.3 °F /  -9.8 °C 1013.4 in /  34313.7 hPa NNW 14.5 mph /  23.3 km/h 30.6 mph /  49.2 km/h 81 % 0.0 in /  0 mm
03:52 17.5 °F /  -8.1 °C 14.2 °F /  -9.9 °C 1013.8 in /  34327.3 hPa WSW 8.0 mph /  12.9 km/h 30.6 mph /  49.2 km/h 81 % 0.0 in /  0 mm
03:57 17.4 °F /  -8.1 °C 14.3 °F /  -9.8 °C 1013.8 in /  34327.3 hPa West 3.2 mph /  5.1 km/h 25.7 mph /  41.4 km/h 82 % 0.0 in /  0 mm
04:02 17.3 °F /  -8.2 °C 14.4 °F /  -9.8 °C 1014.1 in /  34337.4 hPa WNW 6.4 mph /  10.3 km/h 22.5 mph /  36.2 km/h 83 % 0.0 in /  0 mm
04:07 17.3 °F /  -8.2 °C 14.4 °F /  -9.8 °C 1013.8 in /  34327.3 hPa WNW 4.8 mph /  7.7 km/h 20.9 mph /  33.6 km/h 83 % 0.0 in /  0 mm
04:12 17.2 °F /  -8.2 °C 14.3 °F /  -9.8 °C 1013.8 in /  34327.3 hPa WNW 4.8 mph /  7.7 km/h 19.3 mph /  31.1 km/h 83 % 0.0 in /  0 mm
04:17 17.1 °F /  -8.3 °C 14.2 °F /  -9.9 °C 1013.8 in /  34327.3 hPa NW 6.4 mph /  10.3 km/h 16.1 mph /  25.9 km/h 83 % 0.0 in /  0 mm
04:22 17.1 °F /  -8.3 °C 14.4 °F /  -9.8 °C 1013.4 in /  34313.7 hPa NNW 3.2 mph /  5.1 km/h 8.0 mph /  12.9 km/h 84 % 0.0 in /  0 mm
04:27 17.0 °F /  -8.3 °C 14.3 °F /  -9.8 °C 1013.4 in /  34313.7 hPa NW 1.6 mph /  2.6 km/h 8.0 mph /  12.9 km/h 84 % 0.0 in /  0 mm
04:32 16.9 °F /  -8.4 °C 14.2 °F /  -9.9 °C 1013.4 in /  34313.7 hPa Calm   8.0 mph /  12.9 km/h 84 % 0.0 in /  0 mm
04:37 16.9 °F /  -8.4 °C 14.4 °F /  -9.8 °C 1013.4 in /  34313.7 hPa North 1.6 mph /  2.6 km/h 8.0 mph /  12.9 km/h 85 % 0.0 in /  0 mm
04:42 16.8 °F /  -8.4 °C 14.3 °F /  -9.8 °C 1013.1 in /  34303.6 hPa NNE 1.6 mph /  2.6 km/h 6.4 mph /  10.3 km/h 85 % 0.0 in /  0 mm
04:47 16.7 °F /  -8.5 °C 14.2 °F /  -9.9 °C 1013.1 in /  34303.6 hPa NE 1.6 mph /  2.6 km/h 4.8 mph /  7.7 km/h 85 % 0.0 in /  0 mm
04:52 16.7 °F /  -8.5 °C 14.2 °F /  -9.9 °C 1013.1 in /  34303.6 hPa Calm   4.8 mph /  7.7 km/h 85 % 0.0 in /  0 mm
04:57 16.7 °F /  -8.5 °C 14.3 °F /  -9.8 °C 1013.1 in /  34303.6 hPa Calm   4.8 mph /  7.7 km/h 86 % 0.0 in /  0 mm
05:02 16.6 °F /  -8.6 °C 14.2 °F /  -9.9 °C 1013.4 in /  34313.7 hPa Calm   3.2 mph /  5.1 km/h 86 % 0.0 in /  0 mm
05:07 16.5 °F /  -8.6 °C 14.3 °F /  -9.8 °C 1013.8 in /  34327.3 hPa Calm   1.6 mph /  2.6 km/h 87 % 0.0 in /  0 mm
05:12 16.4 °F /  -8.7 °C 14.2 °F /  -9.9 °C 1013.8 in /  34327.3 hPa Calm   1.6 mph /  2.6 km/h 87 % 0.0 in /  0 mm
05:22 16.2 °F /  -8.8 °C 14.6 °F /  -9.7 °C 1014.1 in /  34337.4 hPa SW 3.2 mph /  5.1 km/h 8.0 mph /  12.9 km/h 90 % 0.3 in /  7.62 mm
05:32 15.9 °F /  -8.9 °C 14.4 °F /  -9.8 °C 1014.1 in /  34337.4 hPa SW 3.2 mph /  5.1 km/h 6.4 mph /  10.3 km/h 91 % 0.5 in /  12.7 mm
05:37 15.8 °F /  -9 °C 14.3 °F /  -9.8 °C 1014.4 in /  34347.6 hPa SSW 3.2 mph /  5.1 km/h 6.4 mph /  10.3 km/h 91 % 0.5 in /  12.7 mm
05:42 15.8 °F /  -9 °C 14.5 °F /  -9.7 °C 1014.4 in /  34347.6 hPa Calm   6.4 mph /  10.3 km/h 92 % 0.5 in /  12.7 mm
05:47 15.7 °F /  -9.1 °C 14.4 °F /  -9.8 °C 1014.4 in /  34347.6 hPa Calm   6.4 mph /  10.3 km/h 92 % 0.5 in /  12.7 mm
05:52 15.7 °F /  -9.1 °C 14.4 °F /  -9.8 °C 1014.4 in /  34347.6 hPa Calm   4.8 mph /  7.7 km/h 92 % 0.5 in /  12.7 mm
06:02 15.6 °F /  -9.1 °C 14.5 °F /  -9.7 °C 1014.4 in /  34347.6 hPa Calm   1.6 mph /  2.6 km/h 93 % 0.5 in /  12.7 mm
06:07 15.6 °F /  -9.1 °C 14.5 °F /  -9.7 °C 1014.4 in /  34347.6 hPa Calm   1.6 mph /  2.6 km/h 93 % 0.5 in /  12.7 mm
06:12 15.6 °F /  -9.1 °C 14.5 °F /  -9.7 °C 1014.4 in /  34347.6 hPa Calm     93 % 0.5 in /  12.7 mm
06:17 15.6 °F /  -9.1 °C 14.5 °F /  -9.7 °C 1014.4 in /  34347.6 hPa WNW 1.6 mph /  2.6 km/h   93 % 0.5 in /  12.7 mm
06:22 15.5 °F /  -9.2 °C 14.4 °F /  -9.8 °C 1014.4 in /  34347.6 hPa Calm     93 % 0.5 in /  12.7 mm
06:27 15.4 °F /  -9.2 °C 14.3 °F /  -9.8 °C 1014.4 in /  34347.6 hPa Calm   1.6 mph /  2.6 km/h 93 % 0.3 in /  7.62 mm
06:32 15.4 °F /  -9.2 °C 14.3 °F /  -9.8 °C 1014.4 in /  34347.6 hPa Calm   1.6 mph /  2.6 km/h 93 % 0.3 in /  7.62 mm
06:37 15.4 °F /  -9.2 °C 14.4 °F /  -9.8 °C 1014.4 in /  34347.6 hPa WSW 3.2 mph /  5.1 km/h 3.2 mph /  5.1 km/h 94 % 0.3 in /  7.62 mm
06:42 15.5 °F /  -9.2 °C 14.5 °F /  -9.7 °C 1014.8 in /  34361.1 hPa WSW 1.6 mph /  2.6 km/h 4.8 mph /  7.7 km/h 94 % 0.3 in /  7.62 mm
06:47 15.5 °F /  -9.2 °C 14.5 °F /  -9.7 °C 1014.8 in /  34361.1 hPa WSW 3.2 mph /  5.1 km/h 4.8 mph /  7.7 km/h 94 % 0.3 in /  7.62 mm
06:52 15.4 °F /  -9.2 °C 14.4 °F /  -9.8 °C 1014.8 in /  34361.1 hPa WSW 1.6 mph /  2.6 km/h 4.8 mph /  7.7 km/h 94 % 0.0 in /  0 mm
06:57 15.4 °F /  -9.2 °C 14.4 °F /  -9.8 °C 1014.4 in /  34347.6 hPa Calm   6.4 mph /  10.3 km/h 94 % 0.0 in /  0 mm
07:02 15.4 °F /  -9.2 °C 14.4 °F /  -9.8 °C 1014.8 in /  34361.1 hPa SSW 1.6 mph /  2.6 km/h 6.4 mph /  10.3 km/h 94 % 0.0 in /  0 mm
07:12 15.3 °F /  -9.3 °C 14.3 °F /  -9.8 °C 1014.8 in /  34361.1 hPa SSW 1.6 mph /  2.6 km/h 4.8 mph /  7.7 km/h 94 % 0.0 in /  0 mm
07:17 15.2 °F /  -9.3 °C 14.2 °F /  -9.9 °C 1014.8 in /  34361.1 hPa Calm   4.8 mph /  7.7 km/h 94 % 0.0 in /  0 mm
07:22 15.2 °F /  -9.3 °C 14.2 °F /  -9.9 °C 1014.8 in /  34361.1 hPa Calm   4.8 mph /  7.7 km/h 94 % 0.0 in /  0 mm
07:32 15.1 °F /  -9.4 °C 14.3 °F /  -9.8 °C 1014.8 in /  34361.1 hPa South 3.2 mph /  5.1 km/h 4.8 mph /  7.7 km/h 95 % 0.0 in /  0 mm
07:37 15.1 °F /  -9.4 °C 14.3 °F /  -9.8 °C 1015.1 in /  34371.3 hPa SW 1.6 mph /  2.6 km/h 4.8 mph /  7.7 km/h 95 % 0.0 in /  0 mm
07:42 15.2 °F /  -9.3 °C 14.4 °F /  -9.8 °C 1015.1 in /  34371.3 hPa SSW 1.6 mph /  2.6 km/h 6.4 mph /  10.3 km/h 95 % 0.0 in /  0 mm
07:47 15.2 °F /  -9.3 °C 14.4 °F /  -9.8 °C 1015.1 in /  34371.3 hPa SSW 3.2 mph /  5.1 km/h 8.0 mph /  12.9 km/h 95 % 0.0 in /  0 mm
07:52 15.3 °F /  -9.3 °C 14.5 °F /  -9.7 °C 1015.1 in /  34371.3 hPa SSE 4.8 mph /  7.7 km/h 8.0 mph /  12.9 km/h 95 % 0.0 in /  0 mm
07:57 15.4 °F /  -9.2 °C 14.6 °F /  -9.7 °C 1015.1 in /  34371.3 hPa Calm   8.0 mph /  12.9 km/h 95 % 0.0 in /  0 mm
08:02 15.6 °F /  -9.1 °C 14.8 °F /  -9.6 °C 1015.1 in /  34371.3 hPa SSW 3.2 mph /  5.1 km/h 8.0 mph /  12.9 km/h 95 % 0.0 in /  0 mm
08:12 16.1 °F /  -8.8 °C 15.3 °F /  -9.3 °C 1015.5 in /  34384.8 hPa WSW 4.8 mph /  7.7 km/h 8.0 mph /  12.9 km/h 95 % 0.0 in /  0 mm
08:17 16.2 °F /  -8.8 °C 15.4 °F /  -9.2 °C 1015.5 in /  34384.8 hPa WSW 8.0 mph /  12.9 km/h 11.3 mph /  18.2 km/h 95 % 0.0 in /  0 mm
08:22 16.3 °F /  -8.7 °C 15.5 °F /  -9.2 °C 1015.5 in /  34384.8 hPa SW 3.2 mph /  5.1 km/h 12.9 mph /  20.8 km/h 95 % 0.0 in /  0 mm
08:27 16.4 °F /  -8.7 °C 15.4 °F /  -9.2 °C 1015.8 in /  34395 hPa SW 1.6 mph /  2.6 km/h 12.9 mph /  20.8 km/h 94 % 0.0 in /  0 mm
08:37 16.5 °F /  -8.6 °C 15.5 °F /  -9.2 °C 1015.8 in /  34395 hPa SSW 4.8 mph /  7.7 km/h 11.3 mph /  18.2 km/h 94 % 0.0 in /  0 mm
08:42 16.6 °F /  -8.6 °C 15.6 °F /  -9.1 °C 1015.8 in /  34395 hPa SW 9.7 mph /  15.6 km/h 11.3 mph /  18.2 km/h 94 % 0.0 in /  0 mm
08:47 16.7 °F /  -8.5 °C 15.7 °F /  -9.1 °C 1015.8 in /  34395 hPa SSW 3.2 mph /  5.1 km/h 9.7 mph /  15.6 km/h 94 % 0.0 in /  0 mm
08:57 16.9 °F /  -8.4 °C 15.8 °F /  -9 °C 1015.8 in /  34395 hPa SW 6.4 mph /  10.3 km/h 12.9 mph /  20.8 km/h 93 % 0.0 in /  0 mm
09:02 17.0 °F /  -8.3 °C 15.7 °F /  -9.1 °C 1015.8 in /  34395 hPa SSW 6.4 mph /  10.3 km/h 12.9 mph /  20.8 km/h 92 % 0.0 in /  0 mm
09:07 17.1 °F /  -8.3 °C 15.8 °F /  -9 °C 1016.1 in /  34405.1 hPa SW 4.8 mph /  7.7 km/h 12.9 mph /  20.8 km/h 92 % 0.0 in /  0 mm
09:12 17.2 °F /  -8.2 °C 15.7 °F /  -9.1 °C 1016.1 in /  34405.1 hPa SW 8.0 mph /  12.9 km/h 12.9 mph /  20.8 km/h 91 % 0.0 in /  0 mm
09:17 17.3 °F /  -8.2 °C 15.8 °F /  -9 °C 1016.1 in /  34405.1 hPa SW 9.7 mph /  15.6 km/h 12.9 mph /  20.8 km/h 91 % 0.0 in /  0 mm
09:27 17.4 °F /  -8.1 °C 15.7 °F /  -9.1 °C 1016.1 in /  34405.1 hPa SSW 11.3 mph /  18.2 km/h 16.1 mph /  25.9 km/h 90 % 0.0 in /  0 mm
09:32 17.4 °F /  -8.1 °C 15.7 °F /  -9.1 °C 1016.1 in /  34405.1 hPa WSW 6.4 mph /  10.3 km/h 16.1 mph /  25.9 km/h 90 % 0.0 in /  0 mm
09:37 17.4 °F /  -8.1 °C 15.7 °F /  -9.1 °C 1016.1 in /  34405.1 hPa SW 11.3 mph /  18.2 km/h 19.3 mph /  31.1 km/h 90 % 0.0 in /  0 mm
09:42 17.4 °F /  -8.1 °C 15.7 °F /  -9.1 °C 1016.1 in /  34405.1 hPa WSW 3.2 mph /  5.1 km/h 19.3 mph /  31.1 km/h 90 % 0.0 in /  0 mm
09:47 17.4 °F /  -8.1 °C 15.6 °F /  -9.1 °C 1016.5 in /  34418.7 hPa West 9.7 mph /  15.6 km/h 16.1 mph /  25.9 km/h 89 % 0.0 in /  0 mm
09:52 17.4 °F /  -8.1 °C 15.7 °F /  -9.1 °C 1016.5 in /  34418.7 hPa WSW 8.0 mph /  12.9 km/h 14.5 mph /  23.3 km/h 90 % 0.0 in /  0 mm
09:57 17.6 °F /  -8 °C 15.8 °F /  -9 °C 1016.5 in /  34418.7 hPa SW 6.4 mph /  10.3 km/h 14.5 mph /  23.3 km/h 89 % 0.0 in /  0 mm
10:02 17.8 °F /  -7.9 °C 16.0 °F /  -8.9 °C 1016.5 in /  34418.7 hPa SSW 8.0 mph /  12.9 km/h 14.5 mph /  23.3 km/h 89 % 0.0 in /  0 mm
10:07 18.1 °F /  -7.7 °C 16.1 °F /  -8.8 °C 1016.5 in /  34418.7 hPa SW 3.2 mph /  5.1 km/h 19.3 mph /  31.1 km/h 88 % 0.0 in /  0 mm
10:12 18.4 °F /  -7.6 °C 15.8 °F /  -9 °C 1016.5 in /  34418.7 hPa SW 9.7 mph /  15.6 km/h 19.3 mph /  31.1 km/h 85 % 0.0 in /  0 mm
10:17 18.4 °F /  -7.6 °C 15.8 °F /  -9 °C 1016.5 in /  34418.7 hPa SW 12.9 mph /  20.8 km/h 19.3 mph /  31.1 km/h 85 % 0.0 in /  0 mm
10:27 18.5 °F /  -7.5 °C 15.7 °F /  -9.1 °C 1016.8 in /  34428.8 hPa West 3.2 mph /  5.1 km/h 19.3 mph /  31.1 km/h 84 % 0.0 in /  0 mm
10:32 18.5 °F /  -7.5 °C 15.7 °F /  -9.1 °C 1016.8 in /  34428.8 hPa SW 1.6 mph /  2.6 km/h 19.3 mph /  31.1 km/h 84 % 0.0 in /  0 mm
10:37 18.5 °F /  -7.5 °C 15.7 °F /  -9.1 °C 1016.8 in /  34428.8 hPa SW 8.0 mph /  12.9 km/h 16.1 mph /  25.9 km/h 84 % 0.0 in /  0 mm
10:42 18.5 °F /  -7.5 °C 15.9 °F /  -8.9 °C 1016.8 in /  34428.8 hPa WSW 3.2 mph /  5.1 km/h 16.1 mph /  25.9 km/h 85 % 0.0 in /  0 mm
10:47 18.7 °F /  -7.4 °C 16.3 °F /  -8.7 °C 1016.8 in /  34428.8 hPa WSW 4.8 mph /  7.7 km/h 12.9 mph /  20.8 km/h 86 % 0.0 in /  0 mm
10:52 18.7 °F /  -7.4 °C 15.9 °F /  -8.9 °C 1016.8 in /  34428.8 hPa SSW 3.2 mph /  5.1 km/h 17.7 mph /  28.5 km/h 84 % 0.0 in /  0 mm
10:57 18.6 °F /  -7.4 °C 15.7 °F /  -9.1 °C 1016.8 in /  34428.8 hPa West 6.4 mph /  10.3 km/h 17.7 mph /  28.5 km/h 83 % 0.0 in /  0 mm
11:02 18.7 °F /  -7.4 °C 15.8 °F /  -9 °C 1017.2 in /  34442.4 hPa SW 8.0 mph /  12.9 km/h 17.7 mph /  28.5 km/h 83 % 0.0 in /  0 mm
11:12 19.1 °F /  -7.2 °C 16.0 °F /  -8.9 °C 1016.8 in /  34428.8 hPa SW 11.3 mph /  18.2 km/h 19.3 mph /  31.1 km/h 82 % 0.0 in /  0 mm
11:17 19.3 °F /  -7.1 °C 15.8 °F /  -9 °C 1016.8 in /  34428.8 hPa SW 11.3 mph /  18.2 km/h 22.5 mph /  36.2 km/h 80 % 0.0 in /  0 mm
11:22 19.2 °F /  -7.1 °C 15.5 °F /  -9.2 °C 1016.8 in /  34428.8 hPa SSW 6.4 mph /  10.3 km/h 22.5 mph /  36.2 km/h 79 % 0.0 in /  0 mm
11:27 19.3 °F /  -7.1 °C 16.1 °F /  -8.8 °C 1016.8 in /  34428.8 hPa SW 17.7 mph /  28.5 km/h 22.5 mph /  36.2 km/h 82 % 0.0 in /  0 mm
11:32 19.4 °F /  -7 °C 16.2 °F /  -8.8 °C 1017.2 in /  34442.4 hPa WSW 4.8 mph /  7.7 km/h 22.5 mph /  36.2 km/h 82 % 0.0 in /  0 mm
11:37 19.3 °F /  -7.1 °C 16.0 °F /  -8.9 °C 1017.2 in /  34442.4 hPa SW 14.5 mph /  23.3 km/h 19.3 mph /  31.1 km/h 81 % 0.0 in /  0 mm
11:42 19.3 °F /  -7.1 °C 16.0 °F /  -8.9 °C 1017.2 in /  34442.4 hPa SSW 8.0 mph /  12.9 km/h 27.4 mph /  44.1 km/h 81 % 0.0 in /  0 mm
11:47 19.4 °F /  -7 °C 15.9 °F /  -8.9 °C 1017.2 in /  34442.4 hPa WSW 8.0 mph /  12.9 km/h 27.4 mph /  44.1 km/h 80 % 0.0 in /  0 mm
11:57 19.6 °F /  -6.9 °C 15.9 °F /  -8.9 °C 1017.2 in /  34442.4 hPa SSW 6.4 mph /  10.3 km/h 25.7 mph /  41.4 km/h 79 % 0.0 in /  0 mm
12:02 19.8 °F /  -6.8 °C 15.7 °F /  -9.1 °C 1017.2 in /  34442.4 hPa SW 11.3 mph /  18.2 km/h 25.7 mph /  41.4 km/h 77 % 0.0 in /  0 mm
12:07 19.7 °F /  -6.8 °C 15.3 °F /  -9.3 °C 1017.2 in /  34442.4 hPa SW 12.9 mph /  20.8 km/h 22.5 mph /  36.2 km/h 76 % 0.0 in /  0 mm
12:12 19.9 °F /  -6.7 °C 15.3 °F /  -9.3 °C 1017.2 in /  34442.4 hPa SW 17.7 mph /  28.5 km/h 24.1 mph /  38.8 km/h 75 % 0.0 in /  0 mm
12:17 20.1 °F /  -6.6 °C 15.9 °F /  -8.9 °C 1017.2 in /  34442.4 hPa WSW 24.1 mph /  38.8 km/h 24.1 mph /  38.8 km/h 77 % 0.0 in /  0 mm
12:22 20.4 °F /  -6.4 °C 15.6 °F /  -9.1 °C 1017.2 in /  34442.4 hPa SW 20.9 mph /  33.6 km/h 27.4 mph /  44.1 km/h 74 % 0.0 in /  0 mm
12:27 20.2 °F /  -6.6 °C 15.6 °F /  -9.1 °C 1017.2 in /  34442.4 hPa West 11.3 mph /  18.2 km/h 27.4 mph /  44.1 km/h 75 % 0.0 in /  0 mm
12:32 20.2 °F /  -6.6 °C 15.8 °F /  -9 °C 1017.2 in /  34442.4 hPa SW 11.3 mph /  18.2 km/h 27.4 mph /  44.1 km/h 76 % 0.0 in /  0 mm
12:37 20.3 °F /  -6.5 °C 16.3 °F /  -8.7 °C 1017.2 in /  34442.4 hPa WNW 6.4 mph /  10.3 km/h 22.5 mph /  36.2 km/h 78 % 0.0 in /  0 mm
12:42 20.2 °F /  -6.6 °C 15.8 °F /  -9 °C 1017.2 in /  34442.4 hPa SW 6.4 mph /  10.3 km/h 19.3 mph /  31.1 km/h 76 % 0.0 in /  0 mm
12:47 20.0 °F /  -6.7 °C 15.6 °F /  -9.1 °C 1017.2 in /  34442.4 hPa West 9.7 mph /  15.6 km/h 19.3 mph /  31.1 km/h 76 % 0.0 in /  0 mm
12:52 19.8 °F /  -6.8 °C 15.0 °F /  -9.4 °C 1017.2 in /  34442.4 hPa West 6.4 mph /  10.3 km/h 22.5 mph /  36.2 km/h 74 % 0.0 in /  0 mm
12:57 19.8 °F /  -6.8 °C 15.2 °F /  -9.3 °C 1017.2 in /  34442.4 hPa West 4.8 mph /  7.7 km/h 22.5 mph /  36.2 km/h 75 % 0.0 in /  0 mm
13:02 20.3 °F /  -6.5 °C 15.3 °F /  -9.3 °C 1017.5 in /  34452.6 hPa WSW 17.7 mph /  28.5 km/h 22.5 mph /  36.2 km/h 73 % 0.0 in /  0 mm
13:07 20.1 °F /  -6.6 °C 15.1 °F /  -9.4 °C 1017.5 in /  34452.6 hPa SW 6.4 mph /  10.3 km/h 22.5 mph /  36.2 km/h 73 % 0.0 in /  0 mm
13:12 20.4 °F /  -6.4 °C 15.2 °F /  -9.3 °C 1017.5 in /  34452.6 hPa West 16.1 mph /  25.9 km/h 22.5 mph /  36.2 km/h 72 % 0.0 in /  0 mm
13:17 20.3 °F /  -6.5 °C 15.3 °F /  -9.3 °C 1017.5 in /  34452.6 hPa WSW 14.5 mph /  23.3 km/h 22.5 mph /  36.2 km/h 73 % 0.0 in /  0 mm
13:22 20.3 °F /  -6.5 °C 15.5 °F /  -9.2 °C 1017.5 in /  34452.6 hPa SW 14.5 mph /  23.3 km/h 24.1 mph /  38.8 km/h 74 % 0.0 in /  0 mm
13:27 20.3 °F /  -6.5 °C 15.3 °F /  -9.3 °C 1017.5 in /  34452.6 hPa WSW 14.5 mph /  23.3 km/h 24.1 mph /  38.8 km/h 73 % 0.0 in /  0 mm
13:32 20.3 °F /  -6.5 °C 15.3 °F /  -9.3 °C 1017.5 in /  34452.6 hPa WSW 16.1 mph /  25.9 km/h 24.1 mph /  38.8 km/h 73 % 0.0 in /  0 mm
13:37 20.3 °F /  -6.5 °C 15.1 °F /  -9.4 °C 1017.5 in /  34452.6 hPa WSW 8.0 mph /  12.9 km/h 22.5 mph /  36.2 km/h 72 % 0.0 in /  0 mm
13:42 20.5 °F /  -6.4 °C 15.1 °F /  -9.4 °C 1017.5 in /  34452.6 hPa WSW 9.7 mph /  15.6 km/h 22.5 mph /  36.2 km/h 71 % 0.0 in /  0 mm
13:47 20.8 °F /  -6.2 °C 14.7 °F /  -9.6 °C 1017.5 in /  34452.6 hPa SW 12.9 mph /  20.8 km/h 22.5 mph /  36.2 km/h 68 % 0.0 in /  0 mm
13:52 21.1 °F /  -6.1 °C 15.0 °F /  -9.4 °C 1017.5 in /  34452.6 hPa WSW 12.9 mph /  20.8 km/h 22.5 mph /  36.2 km/h 68 % 0.0 in /  0 mm
13:57 20.8 °F /  -6.2 °C 14.9 °F /  -9.5 °C 1017.2 in /  34442.4 hPa WSW 4.8 mph /  7.7 km/h 29.0 mph /  46.7 km/h 69 % 0.0 in /  0 mm
14:02 20.9 °F /  -6.2 °C 15.2 °F /  -9.3 °C 1017.5 in /  34452.6 hPa WSW 14.5 mph /  23.3 km/h 29.0 mph /  46.7 km/h 70 % 0.0 in /  0 mm
14:12 21.1 °F /  -6.1 °C 15.0 °F /  -9.4 °C 1017.5 in /  34452.6 hPa West 11.3 mph /  18.2 km/h 24.1 mph /  38.8 km/h 68 % 0.0 in /  0 mm
14:17 20.8 °F /  -6.2 °C 14.7 °F /  -9.6 °C 1017.5 in /  34452.6 hPa WSW 11.3 mph /  18.2 km/h 24.1 mph /  38.8 km/h 68 % 0.0 in /  0 mm
14:22 21.1 °F /  -6.1 °C 15.4 °F /  -9.2 °C 1017.5 in /  34452.6 hPa West 11.3 mph /  18.2 km/h 24.1 mph /  38.8 km/h 70 % 0.0 in /  0 mm
14:27 21.3 °F /  -5.9 °C 14.7 °F /  -9.6 °C 1017.5 in /  34452.6 hPa West 8.0 mph /  12.9 km/h 20.9 mph /  33.6 km/h 66 % 0.0 in /  0 mm
14:32 21.1 °F /  -6.1 °C 14.5 °F /  -9.7 °C 1017.5 in /  34452.6 hPa West 14.5 mph /  23.3 km/h 22.5 mph /  36.2 km/h 66 % 0.0 in /  0 mm
14:37 21.1 °F /  -6.1 °C 14.5 °F /  -9.7 °C 1017.5 in /  34452.6 hPa WNW 16.1 mph /  25.9 km/h 22.5 mph /  36.2 km/h 66 % 0.0 in /  0 mm
14:42 21.3 °F /  -5.9 °C 14.5 °F /  -9.7 °C 1017.5 in /  34452.6 hPa SW 22.5 mph /  36.2 km/h 22.5 mph /  36.2 km/h 65 % 0.0 in /  0 mm
14:52 20.9 °F /  -6.2 °C 13.8 °F /  -10.1 °C 1017.5 in /  34452.6 hPa WSW 11.3 mph /  18.2 km/h 25.7 mph /  41.4 km/h 64 % 0.0 in /  0 mm
14:57 21.2 °F /  -6 °C 14.4 °F /  -9.8 °C 1017.5 in /  34452.6 hPa WNW 12.9 mph /  20.8 km/h 25.7 mph /  41.4 km/h 65 % 0.0 in /  0 mm
15:02 21.4 °F /  -5.9 °C 14.3 °F /  -9.8 °C 1017.5 in /  34452.6 hPa West 16.1 mph /  25.9 km/h 22.5 mph /  36.2 km/h 64 % 0.0 in /  0 mm
15:07 21.5 °F /  -5.8 °C 14.2 °F /  -9.9 °C 1017.2 in /  34442.4 hPa West 9.7 mph /  15.6 km/h 20.9 mph /  33.6 km/h 63 % 0.0 in /  0 mm
15:12 22.0 °F /  -5.6 °C 13.9 °F /  -10.1 °C 1017.5 in /  34452.6 hPa West 17.7 mph /  28.5 km/h 22.5 mph /  36.2 km/h 60 % 0.0 in /  0 mm
15:17 21.9 °F /  -5.6 °C 13.5 °F /  -10.3 °C 1017.5 in /  34452.6 hPa WSW 20.9 mph /  33.6 km/h 25.7 mph /  41.4 km/h 59 % 0.0 in /  0 mm
15:22 22.0 °F /  -5.6 °C 13.4 °F /  -10.3 °C 1017.5 in /  34452.6 hPa WNW 12.9 mph /  20.8 km/h 25.7 mph /  41.4 km/h 58 % 0.0 in /  0 mm
15:27 21.8 °F /  -5.7 °C 13.7 °F /  -10.2 °C 1017.5 in /  34452.6 hPa West 12.9 mph /  20.8 km/h 25.7 mph /  41.4 km/h 60 % 0.0 in /  0 mm
15:32 21.8 °F /  -5.7 °C 13.7 °F /  -10.2 °C 1017.5 in /  34452.6 hPa SW 12.9 mph /  20.8 km/h 22.5 mph /  36.2 km/h 60 % 0.0 in /  0 mm
15:37 21.8 °F /  -5.7 °C 13.2 °F /  -10.4 °C 1017.5 in /  34452.6 hPa SW 16.1 mph /  25.9 km/h 27.4 mph /  44.1 km/h 58 % 0.0 in /  0 mm
15:42 21.7 °F /  -5.7 °C 13.1 °F /  -10.5 °C 1017.8 in /  34462.7 hPa WSW 11.3 mph /  18.2 km/h 27.4 mph /  44.1 km/h 58 % 0.0 in /  0 mm
15:47 21.7 °F /  -5.7 °C 13.3 °F /  -10.4 °C 1017.8 in /  34462.7 hPa SW 12.9 mph /  20.8 km/h 27.4 mph /  44.1 km/h 59 % 0.0 in /  0 mm
15:52 21.9 °F /  -5.6 °C 13.5 °F /  -10.3 °C 1017.8 in /  34462.7 hPa WSW 12.9 mph /  20.8 km/h 25.7 mph /  41.4 km/h 59 % 0.0 in /  0 mm
15:57 21.7 °F /  -5.7 °C 13.3 °F /  -10.4 °C 1017.8 in /  34462.7 hPa WSW 16.1 mph /  25.9 km/h 25.7 mph /  41.4 km/h 59 % 0.0 in /  0 mm
16:02 21.7 °F /  -5.7 °C 13.3 °F /  -10.4 °C 1017.8 in /  34462.7 hPa South 8.0 mph /  12.9 km/h 25.7 mph /  41.4 km/h 59 % 0.0 in /  0 mm
16:07 22.1 °F /  -5.5 °C 14.2 °F /  -9.9 °C 1017.8 in /  34462.7 hPa West 12.9 mph /  20.8 km/h 20.9 mph /  33.6 km/h 61 % 0.0 in /  0 mm
16:12 21.9 °F /  -5.6 °C 13.5 °F /  -10.3 °C 1017.8 in /  34462.7 hPa WNW 8.0 mph /  12.9 km/h 25.7 mph /  41.4 km/h 59 % 0.0 in /  0 mm
16:17 21.8 °F /  -5.7 °C 13.4 °F /  -10.3 °C 1017.8 in /  34462.7 hPa West 11.3 mph /  18.2 km/h 25.7 mph /  41.4 km/h 59 % 0.0 in /  0 mm
16:22 21.7 °F /  -5.7 °C 13.8 °F /  -10.1 °C 1017.8 in /  34462.7 hPa WSW 16.1 mph /  25.9 km/h 25.7 mph /  41.4 km/h 61 % 0.0 in /  0 mm
16:27 21.6 °F /  -5.8 °C 14.0 °F /  -10 °C 1017.8 in /  34462.7 hPa WNW 6.4 mph /  10.3 km/h 25.7 mph /  41.4 km/h 62 % 0.0 in /  0 mm
16:32 21.8 °F /  -5.7 °C 13.4 °F /  -10.3 °C 1017.8 in /  34462.7 hPa WNW 14.5 mph /  23.3 km/h 22.5 mph /  36.2 km/h 59 % 0.0 in /  0 mm
16:37 21.7 °F /  -5.7 °C 13.6 °F /  -10.2 °C 1017.8 in /  34462.7 hPa West 9.7 mph /  15.6 km/h 20.9 mph /  33.6 km/h 60 % 0.0 in /  0 mm
16:42 21.7 °F /  -5.7 °C 13.8 °F /  -10.1 °C 1017.8 in /  34462.7 hPa West 6.4 mph /  10.3 km/h 17.7 mph /  28.5 km/h 61 % 0.0 in /  0 mm
16:47 21.7 °F /  -5.7 °C 13.6 °F /  -10.2 °C 1017.8 in /  34462.7 hPa WNW 12.9 mph /  20.8 km/h 17.7 mph /  28.5 km/h 60 % 0.0 in /  0 mm
16:52 21.7 °F /  -5.7 °C 13.6 °F /  -10.2 °C 1017.8 in /  34462.7 hPa SW 16.1 mph /  25.9 km/h 17.7 mph /  28.5 km/h 60 % 0.0 in /  0 mm
16:57 21.4 °F /  -5.9 °C 13.3 °F /  -10.4 °C 1017.8 in /  34462.7 hPa West 12.9 mph /  20.8 km/h 20.9 mph /  33.6 km/h 60 % 0.0 in /  0 mm
17:02 21.4 °F /  -5.9 °C 13.6 °F /  -10.2 °C 1017.8 in /  34462.7 hPa West 8.0 mph /  12.9 km/h 20.9 mph /  33.6 km/h 61 % 0.0 in /  0 mm
17:07 21.5 °F /  -5.8 °C 13.9 °F /  -10.1 °C 1017.8 in /  34462.7 hPa WSW 4.8 mph /  7.7 km/h 20.9 mph /  33.6 km/h 62 % 0.0 in /  0 mm
17:12 21.6 °F /  -5.8 °C 14.0 °F /  -10 °C 1017.8 in /  34462.7 hPa West 6.4 mph /  10.3 km/h 19.3 mph /  31.1 km/h 62 % 0.0 in /  0 mm
17:22 21.6 °F /  -5.8 °C 13.8 °F /  -10.1 °C 1018.2 in /  34476.3 hPa West 11.3 mph /  18.2 km/h 17.7 mph /  28.5 km/h 61 % 0.0 in /  0 mm
17:27 21.6 °F /  -5.8 °C 13.5 °F /  -10.3 °C 1018.2 in /  34476.3 hPa West 8.0 mph /  12.9 km/h 22.5 mph /  36.2 km/h 60 % 0.0 in /  0 mm
17:32 21.9 °F /  -5.6 °C 13.3 °F /  -10.4 °C 1018.2 in /  34476.3 hPa West 9.7 mph /  15.6 km/h 22.5 mph /  36.2 km/h 58 % 0.0 in /  0 mm
17:37 22.3 °F /  -5.4 °C 13.9 °F /  -10.1 °C 1018.2 in /  34476.3 hPa SW 6.4 mph /  10.3 km/h 22.5 mph /  36.2 km/h 59 % 0.0 in /  0 mm
17:42 22.1 °F /  -5.5 °C 13.7 °F /  -10.2 °C 1018.2 in /  34476.3 hPa West 12.9 mph /  20.8 km/h 22.5 mph /  36.2 km/h 59 % 0.0 in /  0 mm
17:47 22.2 °F /  -5.4 °C 13.8 °F /  -10.1 °C 1017.8 in /  34462.7 hPa WSW 4.8 mph /  7.7 km/h 22.5 mph /  36.2 km/h 59 % 0.0 in /  0 mm
17:52 22.3 °F /  -5.4 °C 13.6 °F /  -10.2 °C 1017.8 in /  34462.7 hPa West 6.4 mph /  10.3 km/h 22.5 mph /  36.2 km/h 58 % 0.0 in /  0 mm
17:57 22.2 °F /  -5.4 °C 13.8 °F /  -10.1 °C 1018.2 in /  34476.3 hPa WNW 6.4 mph /  10.3 km/h 16.1 mph /  25.9 km/h 59 % 0.0 in /  0 mm
18:02 22.5 °F /  -5.3 °C 14.1 °F /  -9.9 °C 1017.8 in /  34462.7 hPa WSW 8.0 mph /  12.9 km/h 16.1 mph /  25.9 km/h 59 % 0.0 in /  0 mm
18:07 22.6 °F /  -5.2 °C 13.9 °F /  -10.1 °C 1017.8 in /  34462.7 hPa SW 8.0 mph /  12.9 km/h 16.1 mph /  25.9 km/h 58 % 0.0 in /  0 mm
18:12 22.3 °F /  -5.4 °C 13.4 °F /  -10.3 °C 1017.8 in /  34462.7 hPa West 12.9 mph /  20.8 km/h 17.7 mph /  28.5 km/h 57 % 0.0 in /  0 mm
18:17 21.9 °F /  -5.6 °C 13.8 °F /  -10.1 °C 1017.8 in /  34462.7 hPa WSW 8.0 mph /  12.9 km/h 17.7 mph /  28.5 km/h 60 % 0.0 in /  0 mm
18:22 21.8 °F /  -5.7 °C 13.7 °F /  -10.2 °C 1017.8 in /  34462.7 hPa WSW 8.0 mph /  12.9 km/h 17.7 mph /  28.5 km/h 60 % 0.0 in /  0 mm
18:27 22.1 °F /  -5.5 °C 14.0 °F /  -10 °C 1017.8 in /  34462.7 hPa West 4.8 mph /  7.7 km/h 14.5 mph /  23.3 km/h 60 % 0.0 in /  0 mm
18:32 21.8 °F /  -5.7 °C 13.7 °F /  -10.2 °C 1017.8 in /  34462.7 hPa WSW 1.6 mph /  2.6 km/h 14.5 mph /  23.3 km/h 60 % 0.0 in /  0 mm
18:37 21.7 °F /  -5.7 °C 14.1 °F /  -9.9 °C 1017.8 in /  34462.7 hPa WNW 6.4 mph /  10.3 km/h 12.9 mph /  20.8 km/h 62 % 0.0 in /  0 mm
18:42 22.1 °F /  -5.5 °C 14.2 °F /  -9.9 °C 1017.8 in /  34462.7 hPa WNW 9.7 mph /  15.6 km/h 12.9 mph /  20.8 km/h 61 % 0.0 in /  0 mm
18:47 22.1 °F /  -5.5 °C 12.9 °F /  -10.6 °C 1017.8 in /  34462.7 hPa WSW 12.9 mph /  20.8 km/h 14.5 mph /  23.3 km/h 56 % 0.0 in /  0 mm
18:52 22.1 °F /  -5.5 °C 13.4 °F /  -10.3 °C 1017.8 in /  34462.7 hPa SW 8.0 mph /  12.9 km/h 19.3 mph /  31.1 km/h 58 % 0.0 in /  0 mm
18:57 22.2 °F /  -5.4 °C 13.8 °F /  -10.1 °C 1017.8 in /  34462.7 hPa WNW 3.2 mph /  5.1 km/h 19.3 mph /  31.1 km/h 59 % 0.0 in /  0 mm
19:02 22.2 °F /  -5.4 °C 14.1 °F /  -9.9 °C 1018.2 in /  34476.3 hPa SW 4.8 mph /  7.7 km/h 16.1 mph /  25.9 km/h 60 % 0.0 in /  0 mm
19:12 21.8 °F /  -5.7 °C 13.7 °F /  -10.2 °C 1018.2 in /  34476.3 hPa WNW 4.8 mph /  7.7 km/h 14.5 mph /  23.3 km/h 60 % 0.0 in /  0 mm
19:17 21.7 °F /  -5.7 °C 13.3 °F /  -10.4 °C 1018.2 in /  34476.3 hPa West 4.8 mph /  7.7 km/h 12.9 mph /  20.8 km/h 59 % 0.0 in /  0 mm
19:22 21.8 °F /  -5.7 °C 13.2 °F /  -10.4 °C 1018.2 in /  34476.3 hPa WNW 8.0 mph /  12.9 km/h 12.9 mph /  20.8 km/h 58 % 0.0 in /  0 mm
19:27 21.8 °F /  -5.7 °C 13.2 °F /  -10.4 °C 1018.2 in /  34476.3 hPa West 6.4 mph /  10.3 km/h 12.9 mph /  20.8 km/h 58 % 0.0 in /  0 mm
19:32 21.8 °F /  -5.7 °C 13.2 °F /  -10.4 °C 1018.2 in /  34476.3 hPa SW 3.2 mph /  5.1 km/h 12.9 mph /  20.8 km/h 58 % 0.0 in /  0 mm
19:42 21.7 °F /  -5.7 °C 13.1 °F /  -10.5 °C 1018.2 in /  34476.3 hPa NW 6.4 mph /  10.3 km/h 11.3 mph /  18.2 km/h 58 % 0.0 in /  0 mm
19:52 21.7 °F /  -5.7 °C 13.8 °F /  -10.1 °C 1018.5 in /  34486.4 hPa West 3.2 mph /  5.1 km/h 12.9 mph /  20.8 km/h 61 % 0.0 in /  0 mm
20:02 21.8 °F /  -5.7 °C 13.2 °F /  -10.4 °C 1018.5 in /  34486.4 hPa NW 4.8 mph /  7.7 km/h 12.9 mph /  20.8 km/h 58 % 0.0 in /  0 mm
20:07 21.6 °F /  -5.8 °C 13.0 °F /  -10.6 °C 1018.5 in /  34486.4 hPa West 1.6 mph /  2.6 km/h 11.3 mph /  18.2 km/h 58 % 0.0 in /  0 mm
20:12 21.6 °F /  -5.8 °C 13.5 °F /  -10.3 °C 1018.5 in /  34486.4 hPa WNW 1.6 mph /  2.6 km/h 11.3 mph /  18.2 km/h 60 % 0.0 in /  0 mm
20:17 21.4 °F /  -5.9 °C 13.3 °F /  -10.4 °C 1018.5 in /  34486.4 hPa West 1.6 mph /  2.6 km/h 11.3 mph /  18.2 km/h 60 % 0.0 in /  0 mm
20:22 21.5 °F /  -5.8 °C 13.4 °F /  -10.3 °C 1018.5 in /  34486.4 hPa Calm   6.4 mph /  10.3 km/h 60 % 0.0 in /  0 mm
20:27 21.7 °F /  -5.7 °C 13.3 °F /  -10.4 °C 1018.5 in /  34486.4 hPa WNW 1.6 mph /  2.6 km/h 4.8 mph /  7.7 km/h 59 % 0.0 in /  0 mm
20:32 21.9 °F /  -5.6 °C 13.3 °F /  -10.4 °C 1018.5 in /  34486.4 hPa Calm   4.8 mph /  7.7 km/h 58 % 0.0 in /  0 mm
20:37 22.0 °F /  -5.6 °C 13.6 °F /  -10.2 °C 1018.5 in /  34486.4 hPa West 1.6 mph /  2.6 km/h 4.8 mph /  7.7 km/h 59 % 0.0 in /  0 mm
20:42 21.5 °F /  -5.8 °C 13.4 °F /  -10.3 °C 1018.8 in /  34496.6 hPa Calm   4.8 mph /  7.7 km/h 60 % 0.0 in /  0 mm
20:47 21.1 °F /  -6.1 °C 13.5 °F /  -10.3 °C 1018.8 in /  34496.6 hPa Calm   3.2 mph /  5.1 km/h 62 % 0.0 in /  0 mm
20:52 20.8 °F /  -6.2 °C 13.3 °F /  -10.4 °C 1018.8 in /  34496.6 hPa Calm   3.2 mph /  5.1 km/h 62 % 0.0 in /  0 mm
21:02 20.4 °F /  -6.4 °C 13.1 °F /  -10.5 °C 1018.8 in /  34496.6 hPa Calm   3.2 mph /  5.1 km/h 63 % 0.0 in /  0 mm
21:07 20.3 °F /  -6.5 °C 13.0 °F /  -10.6 °C 1018.8 in /  34496.6 hPa NW 1.6 mph /  2.6 km/h 4.8 mph /  7.7 km/h 63 % 0.0 in /  0 mm
21:12 20.1 °F /  -6.6 °C 13.1 °F /  -10.5 °C 1018.8 in /  34496.6 hPa NW 1.6 mph /  2.6 km/h 4.8 mph /  7.7 km/h 64 % 0.0 in /  0 mm
21:17 20.0 °F /  -6.7 °C 13.2 °F /  -10.4 °C 1018.8 in /  34496.6 hPa NW 1.6 mph /  2.6 km/h 4.8 mph /  7.7 km/h 65 % 0.0 in /  0 mm
21:22 19.8 °F /  -6.8 °C 13.0 °F /  -10.6 °C 1019.2 in /  34510.1 hPa Calm   3.2 mph /  5.1 km/h 65 % 0.0 in /  0 mm
21:27 19.7 °F /  -6.8 °C 13.4 °F /  -10.3 °C 1019.2 in /  34510.1 hPa Calm   1.6 mph /  2.6 km/h 67 % 0.0 in /  0 mm
21:32 19.5 °F /  -6.9 °C 13.4 °F /  -10.3 °C 1019.2 in /  34510.1 hPa NW 1.6 mph /  2.6 km/h 1.6 mph /  2.6 km/h 68 % 0.0 in /  0 mm
21:37 19.4 °F /  -7 °C 13.3 °F /  -10.4 °C 1019.2 in /  34510.1 hPa WNW 1.6 mph /  2.6 km/h 3.2 mph /  5.1 km/h 68 % 0.0 in /  0 mm
21:42 19.3 °F /  -7.1 °C 13.2 °F /  -10.4 °C 1019.2 in /  34510.1 hPa NNW 3.2 mph /  5.1 km/h 3.2 mph /  5.1 km/h 68 % 0.0 in /  0 mm
21:47 19.2 °F /  -7.1 °C 13.1 °F /  -10.5 °C 1019.5 in /  34520.3 hPa Calm   3.2 mph /  5.1 km/h 68 % 0.0 in /  0 mm
21:52 19.1 °F /  -7.2 °C 13.3 °F /  -10.4 °C 1019.5 in /  34520.3 hPa Calm   3.2 mph /  5.1 km/h 69 % 0.0 in /  0 mm
21:57 18.9 °F /  -7.3 °C 13.1 °F /  -10.5 °C 1019.5 in /  34520.3 hPa NW 1.6 mph /  2.6 km/h 3.2 mph /  5.1 km/h 69 % 0.0 in /  0 mm
22:02 18.9 °F /  -7.3 °C 13.1 °F /  -10.5 °C 1019.5 in /  34520.3 hPa Calm   3.2 mph /  5.1 km/h 69 % 0.0 in /  0 mm
22:07 18.8 °F /  -7.3 °C 13.0 °F /  -10.6 °C 1019.5 in /  34520.3 hPa Calm   3.2 mph /  5.1 km/h 69 % 0.0 in /  0 mm
22:12 18.7 °F /  -7.4 °C 12.7 °F /  -10.7 °C 1019.5 in /  34520.3 hPa WNW 1.6 mph /  2.6 km/h 3.2 mph /  5.1 km/h 68 % 0.0 in /  0 mm
22:17 18.7 °F /  -7.4 °C 12.7 °F /  -10.7 °C 1019.5 in /  34520.3 hPa Calm   1.6 mph /  2.6 km/h 68 % 0.0 in /  0 mm
22:22 18.6 °F /  -7.4 °C 12.8 °F /  -10.7 °C 1019.9 in /  34533.8 hPa Calm   1.6 mph /  2.6 km/h 69 % 0.0 in /  0 mm
22:32 18.4 °F /  -7.6 °C 12.8 °F /  -10.7 °C 1019.9 in /  34533.8 hPa Calm   1.6 mph /  2.6 km/h 70 % 0.0 in /  0 mm
22:42 18.1 °F /  -7.7 °C 12.8 °F /  -10.7 °C 1019.9 in /  34533.8 hPa Calm     71 % 0.0 in /  0 mm
22:47 17.9 °F /  -7.8 °C 12.8 °F /  -10.7 °C 1019.5 in /  34520.3 hPa Calm     72 % 0.0 in /  0 mm
22:52 17.8 °F /  -7.9 °C 12.9 °F /  -10.6 °C 1019.5 in /  34520.3 hPa Calm     73 % 0.0 in /  0 mm
22:57 17.7 °F /  -7.9 °C 13.2 °F /  -10.4 °C 1019.5 in /  34520.3 hPa Calm     75 % 0.0 in /  0 mm
23:02 17.4 °F /  -8.1 °C 13.1 °F /  -10.5 °C 1019.9 in /  34533.8 hPa Calm     76 % 0.0 in /  0 mm
23:07 17.2 °F /  -8.2 °C 13.1 °F /  -10.5 °C 1019.5 in /  34520.3 hPa Calm     77 % 0.0 in /  0 mm
23:12 17.0 °F /  -8.3 °C 12.9 °F /  -10.6 °C 1019.5 in /  34520.3 hPa Calm     77 % 0.0 in /  0 mm
23:17 16.9 °F /  -8.4 °C 12.8 °F /  -10.7 °C 1019.5 in /  34520.3 hPa Calm     77 % 0.0 in /  0 mm
23:22 16.9 °F /  -8.4 °C 13.0 °F /  -10.6 °C 1019.5 in /  34520.3 hPa Calm     78 % 0.0 in /  0 mm
23:27 16.7 °F /  -8.5 °C 12.6 °F /  -10.8 °C 1019.5 in /  34520.3 hPa Calm     77 % 0.0 in /  0 mm
23:32 16.5 °F /  -8.6 °C 13.0 °F /  -10.6 °C 1019.5 in /  34520.3 hPa Calm     80 % 0.0 in /  0 mm
23:37 16.3 °F /  -8.7 °C 13.0 °F /  -10.6 °C 1019.9 in /  34533.8 hPa Calm     81 % 0.0 in /  0 mm
23:47 16.2 °F /  -8.8 °C 13.3 °F /  -10.4 °C 1019.9 in /  34533.8 hPa Calm     83 % 0.0 in /  0 mm
23:52 16.2 °F /  -8.8 °C 13.1 °F /  -10.5 °C 1019.9 in /  34533.8 hPa Calm     82 % 0.0 in /  0 mm
23:57 16.3 °F /  -8.7 °C 13.0 °F /  -10.6 °C 1019.9 in /  34533.8 hPa Calm     81 % 0.0 in /  0 mm
Meteo18
Compliments of Weather Underground - 4 mb

Script developed by  Jim McMurry - jmcmurry@mwt.net Adapted for the template by  Wim van der Kuil - Leuven-Template.eu

You find our weather info also at:

European Weather Network

Weather Underground

Equipment we use:

Weather-station
Davis Vue

Weather-program
Meteobridge

Weather-server
Raspberry PI 2 B+

Provider
1 and 1

Davis Vue

Meteobridge

Raspberry PI 2 B+

1 and 1